createdAt,value
2022-11-26T00:00:56.321Z,10.98
2022-11-26T00:03:24.391Z,12.35
2022-11-26T00:05:54.842Z,11.43
2022-11-26T00:08:26.934Z,10.65
2022-11-26T00:13:25.740Z,12.27
2022-11-26T00:15:54.654Z,10.85
2022-11-26T00:18:23.498Z,12.70
2022-11-26T00:20:55.634Z,11.95
2022-11-26T00:25:55.601Z,10.23
2022-11-26T00:28:29.400Z,13.13
2022-11-26T00:30:59.553Z,12.90
2022-11-26T00:33:28.709Z,14.07
2022-11-26T00:35:58.739Z,14.98
2022-11-26T00:38:27.394Z,13.82
2022-11-26T00:40:55.203Z,14.50
2022-11-26T00:43:23.093Z,14.98
2022-11-26T00:45:52.220Z,15.80
2022-11-26T00:48:20.247Z,16.02
2022-11-26T00:50:50.930Z,17.25
2022-11-26T00:53:22.245Z,16.35
2022-11-26T00:55:51.213Z,17.88
2022-11-26T00:58:27.981Z,17.23
2022-11-26T01:00:59.316Z,14.85
2022-11-26T01:03:27.508Z,13.77
2022-11-26T01:05:58.331Z,15.10
2022-11-26T01:08:31.218Z,13.77
2022-11-26T01:10:59.638Z,14.73
2022-11-26T01:13:27.918Z,15.18
2022-11-26T01:15:58.318Z,14.45
2022-11-26T01:18:26.467Z,16.17
2022-11-26T01:20:54.195Z,17.17
2022-11-26T01:23:22.821Z,16.48
2022-11-26T01:25:50.570Z,16.58
2022-11-26T01:28:20.286Z,17.58
2022-11-26T01:30:48.108Z,16.83
2022-11-26T01:33:17.248Z,15.98
2022-11-26T01:35:45.036Z,16.52
2022-11-26T01:38:15.097Z,18.33
2022-11-26T01:41:02.911Z,17.60
2022-11-26T01:43:38.057Z,16.20
2022-11-26T01:46:15.321Z,15.80
2022-11-26T01:48:45.135Z,15.75
2022-11-26T01:51:14.359Z,15.93
2022-11-26T01:53:46.853Z,16.38
2022-11-26T01:56:20.171Z,14.57
2022-11-26T01:58:51.564Z,14.70
2022-11-26T02:01:20.347Z,14.18
2022-11-26T02:03:58.270Z,14.40
2022-11-26T02:06:31.205Z,15.35
2022-11-26T02:09:00.567Z,12.93
2022-11-26T02:11:28.885Z,15.05
2022-11-26T02:14:01.670Z,16.63
2022-11-26T02:16:46.357Z,14.70
2022-11-26T02:19:43.044Z,14.32
2022-11-26T02:22:22.893Z,15.35
2022-11-26T02:24:57.428Z,15.35
2022-11-26T02:28:09.335Z,14.65
2022-11-26T02:30:42.980Z,14.87
2022-11-26T02:33:17.074Z,15.25
2022-11-26T02:35:48.878Z,14.15
2022-11-26T02:38:20.526Z,16.42
2022-11-26T02:40:48.569Z,15.38
2022-11-26T02:43:17.755Z,16.58
2022-11-26T02:45:50.435Z,15.48
2022-11-26T02:48:23.274Z,15.05
2022-11-26T02:50:56.858Z,15.18
2022-11-26T02:53:27.816Z,15.18
2022-11-26T02:56:03.341Z,15.45
2022-11-26T02:58:33.205Z,15.85
2022-11-26T03:01:07.231Z,15.07
2022-11-26T03:03:38.654Z,16.77
2022-11-26T03:06:10.971Z,16.33
2022-11-26T03:08:39.296Z,16.65
2022-11-26T03:11:07.835Z,15.93
2022-11-26T03:13:35.709Z,17.40
2022-11-26T03:16:05.408Z,16.27
2022-11-26T03:18:33.205Z,15.55
2022-11-26T03:21:01.830Z,14.30
2022-11-26T03:23:29.576Z,15.15
2022-11-26T03:25:57.339Z,14.07
2022-11-26T03:28:25.124Z,14.20
2022-11-26T03:30:52.960Z,14.77
2022-11-26T03:33:22.097Z,15.05
2022-11-26T03:35:51.421Z,14.60
2022-11-26T03:38:19.233Z,14.82
2022-11-26T03:40:47.020Z,15.55
2022-11-26T03:43:14.791Z,17.13
2022-11-26T03:45:42.611Z,12.82
2022-11-26T03:48:10.385Z,13.73
2022-11-26T03:50:39.532Z,13.48
2022-11-26T03:53:07.400Z,12.35
2022-11-26T03:55:35.129Z,12.80
2022-11-26T03:58:02.871Z,13.18
2022-11-26T04:00:30.717Z,12.07
2022-11-26T04:02:58.517Z,11.50
2022-11-26T04:05:26.281Z,9.93
2022-11-26T04:07:55.455Z,10.73
2022-11-26T04:10:23.419Z,10.10
2022-11-26T04:12:51.240Z,9.48
2022-11-26T04:15:19.242Z,8.93
2022-11-26T04:17:47.003Z,8.88
2022-11-26T04:20:15.334Z,8.10
2022-11-26T04:22:43.041Z,8.32
2022-11-26T04:25:12.609Z,6.90
2022-11-26T04:27:40.594Z,6.97
2022-11-26T04:30:09.671Z,7.45
2022-11-26T04:32:39.857Z,7.47
2022-11-26T04:35:08.860Z,8.93
2022-11-26T04:37:36.734Z,7.45
2022-11-26T04:40:04.833Z,7.03
2022-11-26T04:42:34.323Z,6.80
2022-11-26T04:45:02.324Z,5.88
2022-11-26T04:47:30.152Z,5.75
2022-11-26T04:49:57.982Z,6.18
2022-11-26T04:52:26.011Z,6.03
2022-11-26T04:54:53.775Z,6.35
2022-11-26T04:57:21.547Z,6.05
2022-11-26T04:59:50.697Z,4.70
2022-11-26T05:02:18.616Z,5.40
2022-11-26T05:04:46.659Z,5.20
2022-11-26T05:07:14.558Z,4.70
2022-11-26T05:09:42.595Z,5.13
2022-11-26T05:12:11.329Z,4.75
2022-11-26T05:14:39.311Z,4.82
2022-11-26T05:17:08.709Z,5.65
2022-11-26T05:19:36.475Z,5.20
2022-11-26T05:22:04.221Z,4.63
2022-11-26T05:24:32.202Z,4.45
2022-11-26T05:26:59.992Z,6.03
2022-11-26T05:29:27.921Z,5.85
2022-11-26T05:31:55.863Z,5.97
2022-11-26T05:34:25.067Z,6.13
2022-11-26T05:36:52.845Z,6.45
2022-11-26T05:39:20.658Z,5.88
2022-11-26T05:41:48.460Z,5.82
2022-11-26T05:44:16.262Z,6.43
2022-11-26T05:46:44.270Z,5.68
2022-11-26T05:49:12.232Z,7.18
2022-11-26T05:51:41.321Z,8.30
2022-11-26T05:54:12.624Z,7.97
2022-11-26T05:56:40.333Z,9.73
2022-11-26T05:59:08.112Z,9.60
2022-11-26T06:01:35.974Z,9.70
2022-11-26T06:04:04.059Z,10.57
2022-11-26T06:06:31.970Z,10.85
2022-11-26T06:09:01.068Z,9.98
2022-11-26T06:11:28.827Z,12.73
2022-11-26T06:13:56.892Z,12.52
2022-11-26T06:16:24.709Z,10.65
2022-11-26T06:18:52.515Z,12.20
2022-11-26T06:21:20.256Z,11.27
2022-11-26T06:23:55.836Z,11.65
2022-11-26T06:26:25.361Z,11.35
2022-11-26T06:28:53.178Z,11.70
2022-11-26T06:31:21.150Z,10.98
2022-11-26T06:33:49.113Z,11.40
2022-11-26T06:36:16.858Z,11.50
2022-11-26T06:38:44.792Z,11.73
2022-11-26T06:41:12.490Z,12.70
2022-11-26T06:43:41.737Z,12.05
2022-11-26T06:46:11.717Z,17.90
2022-11-26T06:48:40.478Z,17.80
2022-11-26T06:51:10.254Z,14.77
2022-11-26T06:53:38.165Z,14.63
2022-11-26T06:56:08.327Z,14.77
2022-11-26T06:58:36.156Z,13.23
2022-11-26T07:01:10.124Z,12.95
2022-11-26T07:03:38.298Z,12.90
2022-11-26T07:06:06.138Z,14.00
2022-11-26T07:08:33.961Z,13.27
2022-11-26T07:11:04.109Z,15.25
2022-11-26T07:13:32.110Z,13.85
2022-11-26T07:16:03.200Z,14.52
2022-11-26T07:18:32.741Z,13.95
2022-11-26T07:21:06.002Z,15.10
2022-11-26T07:23:33.934Z,14.50
2022-11-26T07:26:02.541Z,14.20
2022-11-26T07:28:31.093Z,15.77
2022-11-26T07:31:02.117Z,15.07
2022-11-26T07:33:31.903Z,16.17
2022-11-26T07:36:00.728Z,15.70
2022-11-26T07:38:28.792Z,15.50
2022-11-26T07:41:03.311Z,16.42
2022-11-26T07:43:31.132Z,16.33
2022-11-26T07:46:02.603Z,15.70
2022-11-26T07:48:33.367Z,17.50
2022-11-26T07:51:02.053Z,16.83
2022-11-26T07:53:30.344Z,15.20
2022-11-26T07:55:58.067Z,16.25
2022-11-26T07:58:26.835Z,15.18
2022-11-26T08:00:55.183Z,14.75
2022-11-26T08:03:23.028Z,14.82
2022-11-26T08:05:52.178Z,15.45
2022-11-26T08:08:19.951Z,14.43
2022-11-26T08:10:47.798Z,14.63
2022-11-26T08:13:15.582Z,15.68
2022-11-26T08:15:43.417Z,16.65
2022-11-26T08:18:11.877Z,16.45
2022-11-26T08:20:41.715Z,15.95
2022-11-26T08:23:10.913Z,16.83
2022-11-26T08:25:45.140Z,16.63
2022-11-26T08:28:26.526Z,16.02
2022-11-26T08:31:04.592Z,14.80
2022-11-26T08:33:32.893Z,15.98
2022-11-26T08:36:08.861Z,16.92
2022-11-26T08:38:38.441Z,16.50
2022-11-26T08:41:08.881Z,17.27
2022-11-26T08:44:04.601Z,16.55
2022-11-26T08:46:26.040Z,15.32
2022-11-26T08:48:56.275Z,14.60
2022-11-26T08:51:26.781Z,13.93
2022-11-26T08:53:55.971Z,13.85
2022-11-26T08:56:23.974Z,13.38
2022-11-26T08:58:51.878Z,12.88
2022-11-26T09:01:22.142Z,11.52
2022-11-26T09:03:51.745Z,11.18
2022-11-26T09:06:20.821Z,10.82
2022-11-26T09:09:07.154Z,11.48
2022-11-26T09:11:39.303Z,12.07
2022-11-26T09:16:35.334Z,11.90
2022-11-26T09:19:04.567Z,13.32
2022-11-26T09:21:32.575Z,13.45
2022-11-26T09:24:00.654Z,16.98
2022-11-26T09:26:28.444Z,14.98
2022-11-26T09:28:57.749Z,17.17
2022-11-26T09:31:25.730Z,16.65
2022-11-26T09:33:56.069Z,17.77
2022-11-26T09:36:23.941Z,16.15
2022-11-26T09:38:55.090Z,16.63
2022-11-26T09:41:39.199Z,17.10
2022-11-26T09:44:20.846Z,19.40
2022-11-26T09:47:14.825Z,20.30
2022-11-26T09:49:54.416Z,16.70
2022-11-26T09:52:25.591Z,15.90
2022-11-26T09:55:01.873Z,15.20
2022-11-26T09:57:34.900Z,13.43
2022-11-26T10:00:06.786Z,14.15
2022-11-26T10:02:35.101Z,14.18
2022-11-26T10:05:02.952Z,14.02
2022-11-26T10:07:47.205Z,13.85
2022-11-26T10:10:20.236Z,13.45
2022-11-26T10:16:01.841Z,11.63
2022-11-26T10:18:39.535Z,11.65
2022-11-26T10:21:26.843Z,10.10
2022-11-26T10:24:00.543Z,9.23
2022-11-26T10:26:31.177Z,8.27
2022-11-26T10:29:15.817Z,8.10
2022-11-26T10:31:47.788Z,7.50
2022-11-26T10:34:19.216Z,5.90
2022-11-26T10:36:49.349Z,6.25
2022-11-26T10:39:20.556Z,5.03
2022-11-26T10:41:49.102Z,5.70
2022-11-26T10:44:30.850Z,4.95
2022-11-26T10:47:01.270Z,5.28
2022-11-26T10:49:30.677Z,5.72
2022-11-26T10:52:02.022Z,6.10
2022-11-26T10:54:34.331Z,6.43
2022-11-26T10:57:13.568Z,6.15
2022-11-26T10:59:48.280Z,5.15
2022-11-26T11:02:30.421Z,4.80
2022-11-26T11:05:00.252Z,4.65
2022-11-26T11:07:41.603Z,4.82
2022-11-26T11:10:17.422Z,4.65
2022-11-26T11:12:49.251Z,4.15
2022-11-26T11:15:23.138Z,4.55
2022-11-26T11:17:59.889Z,3.88
2022-11-26T11:20:34.299Z,4.70
2022-11-26T11:23:19.984Z,4.18
2022-11-26T11:25:57.710Z,4.50
2022-11-26T11:28:28.142Z,3.97
2022-11-26T11:31:03.646Z,4.78
2022-11-26T11:33:33.311Z,4.35
2022-11-26T11:36:17.974Z,4.15
2022-11-26T11:38:50.823Z,4.18
2022-11-26T11:41:26.194Z,5.25
2022-11-26T11:44:04.816Z,4.15
2022-11-26T11:47:21.619Z,3.80
2022-11-26T11:50:04.226Z,4.05
2022-11-26T11:52:39.543Z,4.68
2022-11-26T11:55:20.710Z,4.82
2022-11-26T11:58:01.929Z,5.00
2022-11-26T12:00:43.143Z,4.68
2022-11-26T12:03:50.527Z,4.22
2022-11-26T12:06:30.688Z,4.05
2022-11-26T12:09:08.723Z,4.55
2022-11-26T12:11:48.476Z,4.45
2022-11-26T12:14:21.838Z,3.55
2022-11-26T12:16:54.200Z,3.17
2022-11-26T12:19:30.242Z,3.45
2022-11-26T12:22:06.881Z,3.70
2022-11-26T12:24:41.594Z,3.75
2022-11-26T12:27:21.466Z,2.97
2022-11-26T12:29:54.670Z,3.60
2022-11-26T12:32:29.033Z,3.10
2022-11-26T12:35:01.128Z,3.28
2022-11-26T12:40:05.163Z,2.92
2022-11-26T12:42:41.892Z,2.92
2022-11-26T12:45:18.800Z,3.03
2022-11-26T12:47:52.896Z,2.55
2022-11-26T12:50:28.720Z,2.90
2022-11-26T12:53:05.110Z,2.70
2022-11-26T12:55:39.907Z,3.10
2022-11-26T12:58:13.823Z,2.90
2022-11-26T13:00:41.891Z,2.78
2022-11-26T13:03:16.866Z,3.10
2022-11-26T13:05:55.606Z,3.17
2022-11-26T13:08:41.100Z,2.85
2022-11-26T13:11:26.026Z,3.47
2022-11-26T13:14:02.474Z,3.97
2022-11-26T13:16:37.860Z,2.67
2022-11-26T13:19:12.232Z,3.20
2022-11-26T13:21:51.053Z,2.70
2022-11-26T13:24:38.925Z,3.15
2022-11-26T13:27:24.238Z,2.88
2022-11-26T13:30:10.676Z,2.80
2022-11-26T13:33:09.964Z,2.88
2022-11-26T13:36:03.536Z,2.50
2022-11-26T13:38:38.382Z,2.55
2022-11-26T13:41:45.016Z,2.30
2022-11-26T13:44:46.873Z,2.72
2022-11-26T13:47:18.649Z,2.90
2022-11-26T13:49:52.144Z,2.60
2022-11-26T13:52:27.331Z,2.88
2022-11-26T13:55:02.128Z,3.05
2022-11-26T13:57:39.751Z,3.05
2022-11-26T14:00:09.795Z,3.33
2022-11-26T14:02:47.359Z,3.10
2022-11-26T14:05:17.026Z,3.80
2022-11-26T14:07:46.422Z,3.83
2022-11-26T14:10:44.160Z,3.78
2022-11-26T14:13:16.115Z,4.00
2022-11-26T14:15:58.351Z,3.40
2022-11-26T14:21:13.321Z,3.88
2022-11-26T14:23:44.726Z,4.28
2022-11-26T14:26:19.530Z,3.40
2022-11-26T14:28:49.645Z,3.35
2022-11-26T14:31:23.015Z,4.00
2022-11-26T14:33:53.369Z,3.65
2022-11-26T14:36:22.470Z,3.67
2022-11-26T14:39:05.601Z,4.25
2022-11-26T14:41:51.282Z,4.03
2022-11-26T14:44:21.800Z,3.75
2022-11-26T14:46:51.947Z,3.70
2022-11-26T14:49:30.591Z,3.80
2022-11-26T14:52:00.172Z,3.72
2022-11-26T14:54:31.972Z,4.10
2022-11-26T14:57:05.741Z,3.95
2022-11-26T14:59:35.070Z,4.60
2022-11-26T15:02:02.911Z,4.85
2022-11-26T15:04:34.579Z,3.15
2022-11-26T15:07:02.453Z,3.10
2022-11-26T15:09:30.263Z,4.05
2022-11-26T15:12:05.802Z,3.75
2022-11-26T15:14:42.666Z,3.38
2022-11-26T15:17:14.666Z,4.30
2022-11-26T15:19:43.381Z,4.07
2022-11-26T15:22:22.020Z,4.18
2022-11-26T15:24:51.176Z,3.88
2022-11-26T15:27:29.856Z,4.40
2022-11-26T15:29:59.030Z,4.72
2022-11-26T15:32:28.844Z,4.00
2022-11-26T15:35:00.134Z,4.20
2022-11-26T15:37:28.287Z,4.32
2022-11-26T15:40:21.548Z,4.63
2022-11-26T15:42:50.782Z,4.20
2022-11-26T15:45:22.697Z,4.40
2022-11-26T15:47:53.150Z,3.80
2022-11-26T15:50:30.490Z,4.28
2022-11-26T15:53:02.082Z,4.57
2022-11-26T15:55:33.329Z,4.10
2022-11-26T15:58:03.998Z,4.30
2022-11-26T16:00:37.729Z,5.65
2022-11-26T16:03:26.831Z,4.35
2022-11-26T16:05:56.336Z,4.68
2022-11-26T16:08:26.631Z,4.53
2022-11-26T16:10:57.286Z,4.05
2022-11-26T16:13:28.981Z,4.25
2022-11-26T16:16:02.175Z,4.90
2022-11-26T16:18:37.866Z,4.38
2022-11-26T16:21:08.437Z,4.25
2022-11-26T16:23:36.788Z,5.97
2022-11-26T16:26:17.566Z,5.50
2022-11-26T16:28:46.350Z,5.63
2022-11-26T16:31:17.013Z,5.75
2022-11-26T16:33:46.292Z,5.07
2022-11-26T16:36:20.527Z,5.25
2022-11-26T16:38:49.029Z,5.93
2022-11-26T16:41:18.510Z,6.10
2022-11-26T16:43:46.344Z,6.18
2022-11-26T16:46:17.493Z,5.22
2022-11-26T16:48:46.427Z,6.10
2022-11-26T16:51:14.412Z,6.03
2022-11-26T16:53:42.603Z,6.22
2022-11-26T16:56:19.355Z,6.13
2022-11-26T16:58:47.484Z,6.30
2022-11-26T17:01:16.747Z,7.60
2022-11-26T17:03:44.947Z,7.75
2022-11-26T17:06:15.065Z,7.15
2022-11-26T17:08:49.132Z,6.55
2022-11-26T17:11:17.346Z,8.98
2022-11-26T17:13:45.134Z,9.95
2022-11-26T17:16:20.755Z,7.28
2022-11-26T17:18:49.170Z,7.50
2022-11-26T17:21:17.297Z,6.80
2022-11-26T17:23:45.078Z,6.07
2022-11-26T17:26:19.009Z,5.50
2022-11-26T17:28:47.273Z,5.90
2022-11-26T17:31:16.819Z,6.82
2022-11-26T17:33:44.621Z,5.88
2022-11-26T17:36:17.296Z,6.68
2022-11-26T17:38:46.075Z,6.20
2022-11-26T17:41:14.789Z,6.72
2022-11-26T17:43:43.023Z,6.30
2022-11-26T17:46:16.782Z,5.65
2022-11-26T17:48:46.001Z,6.13
2022-11-26T17:51:14.936Z,6.10
2022-11-26T17:53:43.806Z,5.85
2022-11-26T17:56:22.521Z,5.68
2022-11-26T17:58:50.944Z,6.00
2022-11-26T18:01:20.421Z,6.50
2022-11-26T18:03:48.546Z,6.15
2022-11-26T18:06:17.459Z,5.32
2022-11-26T18:08:45.760Z,5.93
2022-11-26T18:11:14.720Z,5.55
2022-11-26T18:13:45.281Z,6.40
2022-11-26T18:16:13.134Z,5.68
2022-11-26T18:18:42.311Z,7.22
2022-11-26T18:21:10.092Z,6.25
2022-11-26T18:23:37.883Z,5.95
2022-11-26T18:26:05.857Z,5.70
2022-11-26T18:28:33.643Z,5.93
2022-11-26T18:31:01.507Z,5.95
2022-11-26T18:33:29.665Z,6.47
2022-11-26T18:35:58.883Z,7.70
2022-11-26T18:38:29.042Z,8.10
2022-11-26T18:41:01.044Z,6.75
2022-11-26T18:43:30.409Z,5.60
2022-11-26T18:45:58.483Z,5.75
2022-11-26T18:48:26.238Z,5.28
2022-11-26T18:50:58.984Z,5.60
2022-11-26T18:53:27.806Z,6.18
2022-11-26T18:55:56.323Z,6.22
2022-11-26T18:58:25.482Z,6.70
2022-11-26T19:00:58.344Z,6.50
2022-11-26T19:03:27.487Z,6.15
2022-11-26T19:05:55.881Z,6.43
2022-11-26T19:08:25.031Z,6.80
2022-11-26T19:10:52.818Z,8.05
2022-11-26T19:13:20.853Z,8.02
2022-11-26T19:15:49.038Z,7.97
2022-11-26T19:18:17.408Z,8.77
2022-11-26T19:20:49.809Z,8.30
2022-11-26T19:23:17.800Z,7.57
2022-11-26T19:25:46.856Z,8.02
2022-11-26T19:28:14.622Z,8.70
2022-11-26T19:30:42.349Z,7.70
2022-11-26T19:33:10.179Z,7.80
2022-11-26T19:35:39.637Z,8.07
2022-11-26T19:38:07.501Z,6.90
2022-11-26T19:40:35.488Z,7.25
2022-11-26T19:43:05.135Z,7.03
2022-11-26T19:45:33.041Z,7.13
2022-11-26T19:48:01.086Z,7.60
2022-11-26T19:50:28.829Z,8.05
2022-11-26T19:52:56.581Z,7.70
2022-11-26T19:55:24.357Z,7.43
2022-11-26T19:57:52.511Z,7.95
2022-11-26T20:00:22.316Z,8.40
2022-11-26T20:02:50.119Z,8.13
2022-11-26T20:05:18.235Z,8.63
2022-11-26T20:07:46.247Z,8.65
2022-11-26T20:10:15.938Z,8.65
2022-11-26T20:12:43.746Z,8.65
2022-11-26T20:15:12.612Z,8.20
2022-11-26T20:17:41.771Z,8.38
2022-11-26T20:20:10.811Z,9.90
2022-11-26T20:22:39.152Z,9.30
2022-11-26T20:25:09.087Z,9.32
2022-11-26T20:27:36.967Z,9.48
2022-11-26T20:30:05.834Z,9.52
2022-11-26T20:32:33.550Z,8.68
2022-11-26T20:35:02.707Z,10.13
2022-11-26T20:37:30.568Z,8.98
2022-11-26T20:39:59.409Z,9.60
2022-11-26T20:42:27.737Z,10.05
2022-11-26T20:44:55.526Z,9.90
2022-11-26T20:47:24.047Z,11.18
2022-11-26T20:49:51.802Z,11.77
2022-11-26T20:52:23.590Z,11.77
2022-11-26T20:54:53.786Z,11.55
2022-11-26T20:57:23.397Z,12.30
2022-11-26T20:59:52.181Z,12.50
2022-11-26T21:02:20.100Z,11.85
2022-11-26T21:04:47.887Z,11.02
2022-11-26T21:07:15.678Z,10.38
2022-11-26T21:09:46.256Z,11.38
2022-11-26T21:12:14.098Z,11.38
2022-11-26T21:14:41.938Z,10.82
2022-11-26T21:17:09.719Z,10.18
2022-11-26T21:19:37.805Z,11.45
2022-11-26T21:22:05.845Z,11.80
2022-11-26T21:24:33.750Z,12.25
2022-11-26T21:27:02.881Z,12.05
2022-11-26T21:29:30.690Z,11.82
2022-11-26T21:31:58.454Z,10.57
2022-11-26T21:34:26.476Z,10.73
2022-11-26T21:36:54.299Z,11.70
2022-11-26T21:39:22.128Z,11.13
2022-11-26T21:41:49.911Z,10.55
2022-11-26T21:44:19.083Z,10.02
2022-11-26T21:46:46.896Z,11.48
2022-11-26T21:49:14.736Z,10.98
2022-11-26T21:51:42.551Z,25.85
2022-11-26T21:54:10.482Z,21.60
2022-11-26T21:56:38.514Z,17.85
2022-11-26T21:59:06.232Z,15.75
2022-11-26T22:01:37.069Z,16.08
2022-11-26T22:04:07.581Z,14.48
2022-11-26T22:06:36.079Z,21.40
2022-11-26T22:09:04.946Z,20.55
2022-11-26T22:11:35.733Z,21.77
2022-11-26T22:14:03.744Z,13.65
2022-11-26T22:16:32.015Z,13.30
2022-11-26T22:19:02.444Z,14.57
2022-11-26T22:21:32.463Z,14.60
2022-11-26T22:24:01.475Z,15.15
2022-11-26T22:26:30.528Z,16.55
2022-11-26T22:28:58.455Z,15.18
2022-11-26T22:31:27.776Z,17.50
2022-11-26T22:33:56.939Z,17.98
2022-11-26T22:36:26.933Z,17.52
2022-11-26T22:38:54.902Z,18.10
2022-11-26T22:41:23.441Z,22.63
2022-11-26T22:43:51.221Z,32.10
2022-11-26T22:46:20.826Z,37.90
2022-11-26T22:48:51.161Z,21.58
2022-11-26T22:51:19.330Z,36.08
2022-11-26T22:53:52.038Z,27.17
2022-11-26T22:56:20.692Z,31.67
2022-11-26T22:58:48.796Z,27.00
2022-11-26T23:01:20.067Z,23.33
2022-11-26T23:03:48.200Z,17.85
2022-11-26T23:06:17.848Z,14.98
2022-11-26T23:08:46.597Z,13.35
2022-11-26T23:11:18.459Z,12.95
2022-11-26T23:13:48.144Z,15.50
2022-11-26T23:16:16.261Z,24.67
2022-11-26T23:18:44.201Z,17.75
2022-11-26T23:21:13.974Z,24.88
2022-11-26T23:23:42.060Z,23.30
2022-11-26T23:26:12.976Z,17.23
2022-11-26T23:28:42.121Z,14.07
2022-11-26T23:31:15.572Z,14.18
2022-11-26T23:33:43.898Z,15.93
2022-11-26T23:36:12.155Z,18.27
2022-11-26T23:38:40.303Z,14.57
2022-11-26T23:41:08.688Z,17.83
2022-11-26T23:43:38.025Z,17.38
2022-11-26T23:46:10.946Z,16.98
2022-11-26T23:48:38.814Z,15.95
2022-11-26T23:51:08.330Z,14.77
2022-11-26T23:53:37.142Z,13.80
2022-11-26T23:56:06.696Z,14.43
2022-11-26T23:58:34.641Z,14.40
